createdAt,value
2018-07-22T00:02:23.022Z,19.58
2018-07-22T00:04:51.345Z,19.58
2018-07-22T00:07:19.618Z,19.49
2018-07-22T00:09:48.067Z,19.43
2018-07-22T00:12:16.358Z,19.45
2018-07-22T00:14:44.814Z,19.42
2018-07-22T00:17:13.085Z,19.34
2018-07-22T00:19:41.411Z,19.29
2018-07-22T00:22:09.973Z,19.25
2018-07-22T00:24:38.234Z,19.20
2018-07-22T00:27:06.773Z,19.09
2018-07-22T00:29:35.092Z,19.13
2018-07-22T00:32:03.421Z,19.07
2018-07-22T00:34:31.750Z,19.10
2018-07-22T00:37:00.028Z,19.01
2018-07-22T00:39:28.857Z,18.97
2018-07-22T00:41:57.093Z,18.90
2018-07-22T00:44:25.389Z,18.91
2018-07-22T00:46:53.679Z,18.82
2018-07-22T00:49:21.972Z,18.76
2018-07-22T00:51:50.296Z,18.70
2018-07-22T00:54:18.554Z,18.60
2018-07-22T00:56:46.930Z,18.66
2018-07-22T00:59:15.211Z,18.65
2018-07-22T01:01:43.550Z,18.57
2018-07-22T01:04:11.795Z,18.56
2018-07-22T01:06:40.091Z,18.56
2018-07-22T01:09:09.954Z,18.52
2018-07-22T01:11:38.235Z,18.50
2018-07-22T01:14:06.493Z,18.49
2018-07-22T01:16:34.823Z,18.44
2018-07-22T01:19:03.258Z,18.29
2018-07-22T01:21:31.820Z,18.31
2018-07-22T01:24:00.315Z,18.27
2018-07-22T01:26:28.633Z,18.30
2018-07-22T01:28:56.868Z,18.16
2018-07-22T01:31:25.142Z,18.14
2018-07-22T01:33:53.367Z,18.12
2018-07-22T01:36:21.696Z,18.10
2018-07-22T01:38:49.952Z,18.00
2018-07-22T01:41:18.221Z,18.02
2018-07-22T01:43:46.518Z,18.03
2018-07-22T01:46:14.840Z,18.05
2018-07-22T01:48:43.123Z,17.98
2018-07-22T01:51:11.365Z,17.97
2018-07-22T01:53:39.817Z,17.90
2018-07-22T01:56:08.079Z,17.86
2018-07-22T01:58:36.344Z,17.80
2018-07-22T02:01:04.678Z,17.75
2018-07-22T02:03:33.578Z,17.76
2018-07-22T02:06:01.948Z,17.73
2018-07-22T02:08:30.252Z,17.66
2018-07-22T02:10:58.505Z,17.63
2018-07-22T02:13:26.856Z,17.60
2018-07-22T02:15:55.380Z,17.63
2018-07-22T02:18:23.625Z,17.52
2018-07-22T02:20:51.913Z,17.58
2018-07-22T02:23:20.193Z,17.50
2018-07-22T02:25:48.488Z,17.42
2018-07-22T02:28:16.746Z,17.48
2018-07-22T02:30:45.032Z,17.46
2018-07-22T02:33:13.590Z,17.42
2018-07-22T02:35:41.917Z,17.46
2018-07-22T02:38:10.185Z,17.41
2018-07-22T02:40:38.467Z,17.39
2018-07-22T02:43:06.774Z,17.33
2018-07-22T02:45:35.003Z,17.29
2018-07-22T02:48:03.273Z,17.27
2018-07-22T02:50:31.553Z,17.21
2018-07-22T02:52:59.829Z,17.20
2018-07-22T02:55:28.152Z,17.22
2018-07-22T02:57:56.505Z,17.23
2018-07-22T03:00:24.805Z,17.24
2018-07-22T03:02:53.050Z,17.13
2018-07-22T03:05:21.381Z,17.11
2018-07-22T03:07:49.637Z,17.14
2018-07-22T03:10:17.900Z,17.11
2018-07-22T03:12:46.193Z,17.10
2018-07-22T03:15:14.643Z,17.08
2018-07-22T03:17:42.899Z,17.04
2018-07-22T03:20:11.269Z,17.15
2018-07-22T03:22:39.558Z,17.13
2018-07-22T03:25:07.834Z,17.12
2018-07-22T03:27:36.103Z,17.08
2018-07-22T03:30:04.900Z,17.06
2018-07-22T03:32:33.198Z,17.07
2018-07-22T03:35:01.617Z,17.05
2018-07-22T03:37:29.933Z,17.03
2018-07-22T03:39:58.257Z,17.00
2018-07-22T03:42:26.534Z,16.99
2018-07-22T03:44:54.793Z,16.98
2018-07-22T03:47:23.136Z,16.96
2018-07-22T03:49:51.403Z,16.97
2018-07-22T03:52:19.654Z,16.99
2018-07-22T03:54:47.961Z,17.02
2018-07-22T03:57:16.289Z,16.93
2018-07-22T03:59:44.581Z,17.03
2018-07-22T04:02:12.873Z,17.09
2018-07-22T04:04:41.151Z,17.11
2018-07-22T04:07:09.442Z,17.15
2018-07-22T04:09:39.685Z,17.17
2018-07-22T04:12:07.986Z,17.16
2018-07-22T04:14:36.620Z,17.18
2018-07-22T04:17:04.951Z,17.19
2018-07-22T04:19:33.320Z,17.25
2018-07-22T04:22:01.593Z,17.26
2018-07-22T04:24:43.592Z,17.28
2018-07-22T04:27:11.864Z,17.40
2018-07-22T04:29:40.116Z,17.40
2018-07-22T04:32:08.396Z,17.43
2018-07-22T04:34:36.664Z,17.45
2018-07-22T04:37:04.977Z,17.55
2018-07-22T04:39:33.266Z,17.53
2018-07-22T04:42:01.500Z,17.52
2018-07-22T04:44:29.774Z,17.56
2018-07-22T04:46:58.106Z,17.52
2018-07-22T04:49:26.388Z,17.55
2018-07-22T04:51:54.832Z,17.54
2018-07-22T04:54:23.163Z,17.54
2018-07-22T04:56:51.621Z,17.72
2018-07-22T04:59:19.903Z,17.61
2018-07-22T05:01:48.179Z,17.73
2018-07-22T05:04:16.487Z,17.82
2018-07-22T05:06:44.729Z,17.77
2018-07-22T05:09:13.512Z,17.76
2018-07-22T05:11:42.145Z,17.89
2018-07-22T05:14:10.462Z,17.87
2018-07-22T05:16:38.793Z,18.03
2018-07-22T05:19:07.456Z,18.10
2018-07-22T05:21:35.954Z,18.11
2018-07-22T05:24:04.362Z,18.16
2018-07-22T05:26:32.716Z,18.17
2018-07-22T05:29:01.011Z,18.27
2018-07-22T05:31:29.301Z,18.33
2018-07-22T05:33:57.596Z,18.34
2018-07-22T05:36:25.893Z,18.51
2018-07-22T05:38:54.137Z,18.48
2018-07-22T05:41:22.417Z,18.53
2018-07-22T05:43:50.998Z,18.44
2018-07-22T05:46:19.275Z,18.66
2018-07-22T05:48:47.579Z,18.82
2018-07-22T05:51:15.868Z,18.98
2018-07-22T05:53:44.248Z,19.05
2018-07-22T05:56:12.524Z,19.21
2018-07-22T05:58:40.844Z,19.40
2018-07-22T06:01:09.146Z,19.52
2018-07-22T06:03:38.348Z,19.48
2018-07-22T06:06:06.620Z,19.67
2018-07-22T06:08:34.907Z,19.55
2018-07-22T06:11:03.177Z,19.52
2018-07-22T06:13:31.468Z,19.71
2018-07-22T06:15:59.762Z,19.76
2018-07-22T06:18:28.134Z,19.48
2018-07-22T06:20:56.409Z,19.70
2018-07-22T06:23:24.757Z,19.87
2018-07-22T06:25:53.068Z,19.93
2018-07-22T06:28:21.358Z,19.93
2018-07-22T06:30:49.615Z,19.97
2018-07-22T06:33:18.128Z,19.84
2018-07-22T06:35:46.457Z,20.19
2018-07-22T06:38:14.732Z,20.41
2018-07-22T06:40:43.001Z,20.26
2018-07-22T06:43:11.288Z,20.63
2018-07-22T06:45:39.555Z,20.91
2018-07-22T06:48:07.803Z,20.72
2018-07-22T06:50:36.100Z,20.99
2018-07-22T06:53:04.355Z,21.03
2018-07-22T06:55:32.625Z,21.18
2018-07-22T06:58:00.961Z,21.19
2018-07-22T07:00:29.225Z,21.43
2018-07-22T07:02:57.593Z,21.39
2018-07-22T07:05:25.938Z,21.52
2018-07-22T07:07:54.240Z,21.65
2018-07-22T07:10:22.571Z,21.74
2018-07-22T07:12:50.872Z,21.96
2018-07-22T07:15:19.176Z,22.02
2018-07-22T07:17:47.440Z,22.01
2018-07-22T07:20:15.778Z,21.86
2018-07-22T07:22:44.156Z,21.67
2018-07-22T07:25:12.513Z,21.91
2018-07-22T07:27:40.906Z,22.24
2018-07-22T07:30:09.222Z,22.27
2018-07-22T07:32:37.790Z,22.14
2018-07-22T07:35:06.225Z,21.99
2018-07-22T07:37:34.538Z,21.88
2018-07-22T07:40:02.895Z,21.70
2018-07-22T07:42:31.177Z,21.84
2018-07-22T07:44:59.583Z,22.08
2018-07-22T07:47:27.821Z,22.48
2018-07-22T07:49:56.116Z,22.38
2018-07-22T07:52:24.509Z,22.63
2018-07-22T07:54:53.786Z,22.59
2018-07-22T07:57:22.050Z,23.05
2018-07-22T07:59:53.224Z,23.04
2018-07-22T08:02:22.641Z,23.02
2018-07-22T08:04:50.905Z,22.78
2018-07-22T08:07:19.205Z,23.04
2018-07-22T08:09:47.712Z,23.16
2018-07-22T08:12:16.307Z,23.03
2018-07-22T08:14:45.026Z,22.91
2018-07-22T08:17:13.432Z,23.30
2018-07-22T08:19:41.776Z,23.34
2018-07-22T08:22:10.133Z,23.40
2018-07-22T08:24:38.570Z,23.47
2018-07-22T08:27:06.927Z,23.44
2018-07-22T08:29:35.849Z,23.33
2018-07-22T08:32:05.546Z,23.19
2018-07-22T08:34:35.269Z,23.50
2018-07-22T08:37:03.848Z,23.40
2018-07-22T08:39:33.112Z,23.82
2018-07-22T08:42:02.000Z,24.35
2018-07-22T08:44:30.327Z,24.43
2018-07-22T08:46:58.607Z,24.27
2018-07-22T08:49:27.302Z,24.10
2018-07-22T08:51:55.571Z,24.13
2018-07-22T08:54:24.098Z,24.65
2018-07-22T08:56:52.398Z,24.79
2018-07-22T08:59:21.281Z,24.82
2018-07-22T09:01:49.584Z,24.97
2018-07-22T09:04:18.059Z,24.92
2018-07-22T09:06:46.329Z,24.79
2018-07-22T09:09:14.760Z,24.91
2018-07-22T09:11:43.237Z,24.69
2018-07-22T09:14:11.566Z,24.56
2018-07-22T09:16:39.851Z,24.50
2018-07-22T09:19:08.276Z,24.69
2018-07-22T09:21:36.875Z,24.94
2018-07-22T09:24:05.206Z,24.78
2018-07-22T09:26:33.711Z,24.62
2018-07-22T09:29:01.970Z,24.21
2018-07-22T09:31:30.317Z,24.37
2018-07-22T09:33:58.851Z,24.75
2018-07-22T09:36:27.161Z,25.08
2018-07-22T09:38:55.479Z,25.52
2018-07-22T09:41:23.849Z,25.36
2018-07-22T09:43:52.129Z,25.31
2018-07-22T09:46:20.387Z,25.49
2018-07-22T09:51:46.249Z,25.55
2018-07-22T09:54:14.568Z,25.82
2018-07-22T09:56:42.824Z,25.61
2018-07-22T09:59:11.128Z,25.79
2018-07-22T10:01:39.463Z,25.90
2018-07-22T10:04:07.811Z,26.06
2018-07-22T10:06:36.030Z,26.06
2018-07-22T10:09:06.174Z,26.33
2018-07-22T10:11:34.546Z,26.68
2018-07-22T10:14:02.889Z,26.37
2018-07-22T10:16:31.216Z,26.44
2018-07-22T10:18:59.527Z,25.78
2018-07-22T10:21:27.771Z,25.86
2018-07-22T10:23:56.095Z,25.46
2018-07-22T10:26:24.391Z,25.28
2018-07-22T10:28:53.244Z,26.03
2018-07-22T10:31:21.508Z,26.24
2018-07-22T10:33:49.780Z,25.94
2018-07-22T10:36:18.071Z,26.31
2018-07-22T10:38:46.355Z,26.68
2018-07-22T10:41:14.620Z,26.80
2018-07-22T10:43:42.901Z,26.61
2018-07-22T10:46:11.240Z,26.41
2018-07-22T10:48:39.525Z,26.55
2018-07-22T10:51:08.459Z,26.27
2018-07-22T10:53:36.808Z,26.47
2018-07-22T10:56:05.519Z,26.65
2018-07-22T10:58:34.373Z,27.18
2018-07-22T11:01:02.778Z,26.39
2018-07-22T11:03:31.261Z,25.96
2018-07-22T11:05:59.541Z,26.11
2018-07-22T11:08:28.124Z,25.70
2018-07-22T11:10:56.455Z,26.50
2018-07-22T11:13:24.796Z,26.56
2018-07-22T11:15:53.097Z,26.41
2018-07-22T11:18:21.384Z,26.42
2018-07-22T11:20:49.723Z,25.87
2018-07-22T11:23:18.054Z,26.42
2018-07-22T11:25:46.372Z,26.70
2018-07-22T11:28:14.710Z,26.57
2018-07-22T11:30:43.028Z,25.99
2018-07-22T11:33:11.540Z,26.50
2018-07-22T11:35:40.004Z,26.04
2018-07-22T11:38:08.405Z,26.34
2018-07-22T11:40:36.701Z,26.03
2018-07-22T11:43:04.992Z,26.22
2018-07-22T11:45:33.373Z,25.91
2018-07-22T11:48:01.633Z,26.03
2018-07-22T11:50:29.946Z,26.18
2018-07-22T11:52:58.186Z,26.83
2018-07-22T11:55:26.600Z,26.97
2018-07-22T11:57:54.871Z,26.90
2018-07-22T12:00:23.123Z,27.55
2018-07-22T12:02:51.472Z,27.97
2018-07-22T12:05:19.816Z,27.57
2018-07-22T12:07:48.125Z,28.20
2018-07-22T12:10:16.374Z,27.70
2018-07-22T12:12:44.655Z,27.77
2018-07-22T12:15:12.944Z,28.26
2018-07-22T12:17:41.196Z,28.05
2018-07-22T12:20:09.512Z,27.96
2018-07-22T12:22:37.777Z,27.38
2018-07-22T12:25:06.324Z,27.64
2018-07-22T12:27:34.634Z,28.05
2018-07-22T12:30:02.898Z,27.46
2018-07-22T12:32:31.192Z,27.54
2018-07-22T12:34:59.452Z,27.66
2018-07-22T12:37:27.761Z,27.30
2018-07-22T12:39:56.033Z,27.98
2018-07-22T12:42:24.298Z,27.88
2018-07-22T12:44:52.685Z,27.17
2018-07-22T12:47:20.990Z,26.71
2018-07-22T12:49:49.332Z,27.61
2018-07-22T12:52:17.638Z,27.40
2018-07-22T12:54:46.045Z,27.29
2018-07-22T12:57:15.508Z,27.86
2018-07-22T12:59:44.067Z,27.80
2018-07-22T13:02:12.915Z,27.95
2018-07-22T13:04:41.162Z,28.14
2018-07-22T13:07:09.865Z,27.85
2018-07-22T13:09:38.138Z,27.33
2018-07-22T13:12:06.546Z,27.21
2018-07-22T13:14:34.834Z,27.75
2018-07-22T13:17:03.185Z,28.42
2018-07-22T13:19:31.465Z,29.04
2018-07-22T13:21:59.716Z,28.93
2018-07-22T13:24:28.020Z,28.66
2018-07-22T13:26:56.444Z,28.62
2018-07-22T13:29:24.816Z,29.16
2018-07-22T13:31:53.114Z,28.54
2018-07-22T13:34:21.388Z,28.74
2018-07-22T13:36:49.829Z,28.34
2018-07-22T13:39:18.107Z,28.76
2018-07-22T13:41:46.469Z,28.19
2018-07-22T13:44:14.751Z,28.78
2018-07-22T13:46:43.043Z,29.28
2018-07-22T13:49:11.351Z,28.07
2018-07-22T13:51:39.660Z,27.33
2018-07-22T13:54:08.034Z,26.89
2018-07-22T13:56:36.274Z,27.01
2018-07-22T13:59:04.556Z,28.17
2018-07-22T14:01:32.905Z,27.77
2018-07-22T14:04:01.304Z,27.34
2018-07-22T14:06:29.633Z,27.43
2018-07-22T14:08:57.895Z,28.75
2018-07-22T14:11:26.195Z,29.02
2018-07-22T14:13:54.737Z,28.69
2018-07-22T14:16:23.067Z,28.00
2018-07-22T14:18:51.497Z,28.14
2018-07-22T14:21:20.119Z,27.89
2018-07-22T14:23:48.386Z,27.41
2018-07-22T14:26:16.655Z,28.05
2018-07-22T14:28:44.995Z,28.06
2018-07-22T14:31:13.250Z,27.66
2018-07-22T14:33:41.516Z,27.49
2018-07-22T14:36:09.806Z,27.86
2018-07-22T14:38:38.096Z,28.11
2018-07-22T14:41:06.725Z,28.38
2018-07-22T14:43:34.868Z,28.93
2018-07-22T14:46:03.207Z,28.73
2018-07-22T14:48:31.568Z,28.29
2018-07-22T14:50:59.866Z,27.56
2018-07-22T14:53:28.285Z,27.27
2018-07-22T14:55:56.761Z,28.01
2018-07-22T14:58:25.254Z,27.41
2018-07-22T15:00:53.542Z,27.26
2018-07-22T15:03:22.013Z,29.08
2018-07-22T15:05:50.344Z,29.22
2018-07-22T15:08:18.684Z,29.42
2018-07-22T15:10:46.930Z,29.82
2018-07-22T15:13:15.400Z,30.12
2018-07-22T15:15:43.723Z,30.76
2018-07-22T15:18:12.184Z,29.72
2018-07-22T15:20:40.521Z,30.92
2018-07-22T15:23:08.826Z,30.92
2018-07-22T15:25:37.174Z,30.32
2018-07-22T15:28:05.526Z,30.10
2018-07-22T15:30:33.810Z,29.19
2018-07-22T15:33:02.074Z,28.25
2018-07-22T15:35:30.454Z,29.65
2018-07-22T15:37:58.737Z,30.61
2018-07-22T15:40:27.153Z,31.68
2018-07-22T15:42:55.519Z,32.49
2018-07-22T15:45:23.857Z,31.55
2018-07-22T15:47:52.371Z,29.97
2018-07-22T15:50:20.653Z,28.60
2018-07-22T15:52:48.957Z,28.19
2018-07-22T15:55:17.295Z,27.62
2018-07-22T15:57:45.484Z,27.62
2018-07-22T16:00:13.818Z,27.39
2018-07-22T16:02:42.147Z,27.77
2018-07-22T16:05:10.665Z,27.73
2018-07-22T16:07:39.244Z,27.40
2018-07-22T16:10:08.072Z,27.52
2018-07-22T16:12:36.324Z,27.46
2018-07-22T16:15:05.303Z,27.49
2018-07-22T16:17:34.549Z,27.39
2018-07-22T16:20:03.085Z,26.73
2018-07-22T16:22:31.616Z,27.17
2018-07-22T16:24:59.894Z,27.10
2018-07-22T16:27:28.204Z,27.03
2018-07-22T16:29:56.602Z,26.73
2018-07-22T16:32:24.923Z,26.37
2018-07-22T16:34:53.390Z,26.55
2018-07-22T16:37:21.815Z,26.60
2018-07-22T16:39:50.096Z,26.47
2018-07-22T16:42:18.441Z,26.66
2018-07-22T16:44:46.735Z,26.90
2018-07-22T16:47:15.011Z,27.28
2018-07-22T16:49:43.490Z,28.43
2018-07-22T16:52:11.747Z,28.68
2018-07-22T16:54:40.027Z,29.25
2018-07-22T16:57:08.592Z,29.02
2018-07-22T16:59:36.852Z,28.93
2018-07-22T17:02:05.268Z,29.70
2018-07-22T17:06:55.265Z,29.14
2018-07-22T17:09:23.630Z,28.62
2018-07-22T17:11:51.969Z,27.96
2018-07-22T17:14:20.297Z,27.93
2018-07-22T17:16:48.952Z,27.62
2018-07-22T17:19:17.292Z,27.13
2018-07-22T17:21:45.536Z,26.92
2018-07-22T17:24:14.780Z,26.95
2018-07-22T17:26:43.136Z,27.08
2018-07-22T17:29:11.446Z,27.52
2018-07-22T17:31:40.243Z,27.56
2018-07-22T17:34:08.653Z,27.36
2018-07-22T17:36:36.975Z,27.19
2018-07-22T17:39:08.056Z,26.32
2018-07-22T17:41:36.408Z,26.16
2018-07-22T17:44:04.736Z,26.15
2018-07-22T17:46:33.104Z,26.28
2018-07-22T17:49:01.478Z,26.08
2018-07-22T17:51:29.767Z,26.59
2018-07-22T17:53:58.120Z,26.66
2018-07-22T17:56:26.528Z,26.78
2018-07-22T17:58:54.823Z,26.51
2018-07-22T18:01:23.133Z,26.36
2018-07-22T18:03:51.626Z,26.03
2018-07-22T18:06:19.994Z,26.02
2018-07-22T18:08:48.310Z,25.99
2018-07-22T18:11:16.642Z,25.87
2018-07-22T18:13:45.018Z,25.99
2018-07-22T18:16:13.280Z,26.00
2018-07-22T18:18:41.610Z,25.99
2018-07-22T18:21:09.938Z,25.85
2018-07-22T18:23:38.242Z,25.96
2018-07-22T18:26:07.189Z,25.66
2018-07-22T18:28:35.473Z,25.69
2018-07-22T18:31:03.804Z,25.59
2018-07-22T18:33:32.059Z,25.75
2018-07-22T18:36:00.320Z,25.68
2018-07-22T18:38:28.910Z,25.66
2018-07-22T18:40:57.188Z,25.49
2018-07-22T18:43:25.484Z,25.59
2018-07-22T18:45:53.726Z,25.35
2018-07-22T18:48:22.779Z,25.29
2018-07-22T18:50:51.268Z,25.42
2018-07-22T18:53:19.735Z,25.34
2018-07-22T18:55:48.044Z,25.19
2018-07-22T18:58:16.345Z,25.11
2018-07-22T19:00:44.608Z,25.09
2018-07-22T19:03:13.045Z,24.97
2018-07-22T19:05:41.341Z,24.88
2018-07-22T19:08:11.290Z,24.76
2018-07-22T19:10:39.657Z,24.70
2018-07-22T19:13:07.997Z,24.73
2018-07-22T19:15:36.284Z,24.63
2018-07-22T19:18:06.434Z,24.46
2018-07-22T19:20:41.722Z,24.44
2018-07-22T19:23:09.992Z,24.47
2018-07-22T19:25:38.420Z,24.38
2018-07-22T19:28:06.711Z,24.20
2018-07-22T19:30:35.688Z,24.36
2018-07-22T19:33:03.941Z,24.34
2018-07-22T19:35:32.256Z,24.27
2018-07-22T19:38:00.562Z,24.07
2018-07-22T19:40:28.880Z,24.07
2018-07-22T19:42:57.349Z,24.01
2018-07-22T19:45:25.603Z,23.98
2018-07-22T19:47:53.866Z,23.94
2018-07-22T19:50:22.218Z,23.89
2018-07-22T19:52:50.482Z,23.69
2018-07-22T19:55:18.722Z,23.76
2018-07-22T19:57:47.304Z,23.54
2018-07-22T20:00:15.717Z,23.50
2018-07-22T20:02:44.039Z,23.72
2018-07-22T20:05:12.404Z,23.69
2018-07-22T20:07:40.693Z,23.37
2018-07-22T20:10:09.052Z,23.47
2018-07-22T20:12:37.382Z,23.30
2018-07-22T20:15:05.632Z,23.27
2018-07-22T20:17:33.993Z,23.15
2018-07-22T20:20:02.312Z,23.19
2018-07-22T20:22:30.662Z,23.24
2018-07-22T20:24:58.932Z,23.15
2018-07-22T20:27:27.260Z,23.02
2018-07-22T20:29:55.543Z,22.93
2018-07-22T20:32:23.921Z,23.05
2018-07-22T20:34:52.304Z,23.07
2018-07-22T20:37:20.654Z,23.01
2018-07-22T20:39:48.943Z,23.03
2018-07-22T20:42:17.437Z,22.87
2018-07-22T20:44:45.746Z,22.86
2018-07-22T20:47:14.103Z,22.75
2018-07-22T20:49:42.354Z,22.66
2018-07-22T20:52:10.709Z,22.73
2018-07-22T20:54:38.991Z,22.68
2018-07-22T20:57:07.272Z,22.66
2018-07-22T20:59:35.568Z,22.68
2018-07-22T21:02:03.959Z,22.66
2018-07-22T21:04:32.264Z,22.45
2018-07-22T21:07:00.602Z,22.41
2018-07-22T21:09:28.869Z,22.47
2018-07-22T21:13:08.887Z,22.54
2018-07-22T21:15:37.184Z,22.45
2018-07-22T21:18:05.537Z,22.17
2018-07-22T21:20:33.829Z,22.10
2018-07-22T21:23:02.109Z,22.11
2018-07-22T21:25:30.421Z,22.07
2018-07-22T21:27:58.683Z,22.06
2018-07-22T21:30:26.931Z,21.96
2018-07-22T21:32:55.417Z,21.95
2018-07-22T21:35:23.799Z,21.87
2018-07-22T21:37:52.050Z,21.88
2018-07-22T21:40:20.383Z,21.83
2018-07-22T21:42:48.645Z,21.82
2018-07-22T21:45:16.902Z,21.67
2018-07-22T21:47:45.181Z,21.69
2018-07-22T21:50:13.520Z,21.71
2018-07-22T21:52:41.825Z,21.63
2018-07-22T21:55:10.110Z,21.69
2018-07-22T21:57:38.508Z,21.57
2018-07-22T22:00:24.114Z,21.64
2018-07-22T22:02:52.391Z,21.61
2018-07-22T22:05:20.753Z,21.57
2018-07-22T22:07:49.049Z,21.49
2018-07-22T22:10:17.691Z,21.39
2018-07-22T22:12:45.952Z,21.45
2018-07-22T22:15:22.980Z,21.48
2018-07-22T22:17:51.272Z,21.44
2018-07-22T22:20:19.602Z,21.34
2018-07-22T22:22:48.316Z,21.33
2018-07-22T22:25:16.605Z,21.30
2018-07-22T22:27:45.127Z,21.16
2018-07-22T22:30:15.050Z,21.22
2018-07-22T22:32:44.000Z,21.19
2018-07-22T22:35:12.331Z,21.18
2018-07-22T22:37:41.551Z,21.25
2018-07-22T22:40:09.977Z,21.16
2018-07-22T22:42:38.267Z,21.16
2018-07-22T22:45:06.650Z,21.07
2018-07-22T22:47:34.910Z,21.11
2018-07-22T22:50:03.207Z,21.10
2018-07-22T22:52:31.604Z,21.15
2018-07-22T22:54:59.860Z,21.02
2018-07-22T22:57:28.147Z,20.96
2018-07-22T22:59:56.429Z,21.00
2018-07-22T23:02:29.479Z,20.99
2018-07-22T23:04:57.812Z,20.94
2018-07-22T23:07:26.091Z,20.87
2018-07-22T23:09:54.325Z,20.73
2018-07-22T23:12:22.612Z,20.67
2018-07-22T23:14:50.868Z,20.63
2018-07-22T23:17:19.181Z,20.53
2018-07-22T23:19:47.472Z,20.50
2018-07-22T23:22:15.967Z,20.38
2018-07-22T23:24:44.237Z,20.42
2018-07-22T23:27:12.483Z,20.27
2018-07-22T23:29:40.829Z,20.26
2018-07-22T23:32:09.084Z,20.28
2018-07-22T23:34:38.146Z,20.23
2018-07-22T23:37:06.781Z,20.20
2018-07-22T23:39:35.086Z,20.07
2018-07-22T23:42:03.447Z,19.99
2018-07-22T23:44:32.064Z,19.91
2018-07-22T23:47:00.329Z,19.84
2018-07-22T23:49:28.574Z,19.75
2018-07-22T23:51:56.902Z,19.65
2018-07-22T23:54:25.374Z,19.79
2018-07-22T23:56:53.729Z,19.86
2018-07-22T23:59:22.187Z,19.97
